sensor_id;sensor_type;location;lat;lon;timestamp;pressure;altitude;pressure_sealevel;temperature;humidity
74334;BME280;62753;40.394;-80.022;2023-10-13T00:00:33;97044.37;;;24.35;23.51
74334;BME280;62753;40.394;-80.022;2023-10-13T00:02:58;97037.75;;;23.47;23.90
74334;BME280;62753;40.394;-80.022;2023-10-13T00:05:22;97044.13;;;24.37;23.13
74334;BME280;62753;40.394;-80.022;2023-10-13T00:07:48;97044.21;;;24.67;22.77
74334;BME280;62753;40.394;-80.022;2023-10-13T00:10:13;97038.42;;;24.38;23.07
74334;BME280;62753;40.394;-80.022;2023-10-13T00:12:39;97029.11;;;24.55;22.81
74334;BME280;62753;40.394;-80.022;2023-10-13T00:15:05;97034.47;;;24.01;24.09
74334;BME280;62753;40.394;-80.022;2023-10-13T00:17:29;97037.86;;;23.49;23.86
74334;BME280;62753;40.394;-80.022;2023-10-13T00:19:55;97039.51;;;24.22;23.30
74334;BME280;62753;40.394;-80.022;2023-10-13T00:22:20;97040.03;;;23.78;23.86
74334;BME280;62753;40.394;-80.022;2023-10-13T00:24:45;97042.07;;;24.78;22.94
74334;BME280;62753;40.394;-80.022;2023-10-13T00:27:11;97051.34;;;23.27;24.23
74334;BME280;62753;40.394;-80.022;2023-10-13T00:29:36;97054.25;;;23.98;23.64
74334;BME280;62753;40.394;-80.022;2023-10-13T00:32:01;97060.88;;;23.62;23.53
74334;BME280;62753;40.394;-80.022;2023-10-13T00:34:27;97067.23;;;23.88;24.67
74334;BME280;62753;40.394;-80.022;2023-10-13T00:36:52;97069.84;;;21.36;26.70
74334;BME280;62753;40.394;-80.022;2023-10-13T00:39:17;97072.70;;;22.62;25.29
74334;BME280;62753;40.394;-80.022;2023-10-13T00:41:43;97073.26;;;23.03;25.20
74334;BME280;62753;40.394;-80.022;2023-10-13T00:44:07;97073.31;;;23.20;24.98
74334;BME280;62753;40.394;-80.022;2023-10-13T00:46:34;97067.61;;;22.42;25.59
74334;BME280;62753;40.394;-80.022;2023-10-13T00:48:59;97062.19;;;23.67;24.38
74334;BME280;62753;40.394;-80.022;2023-10-13T00:51:23;97067.85;;;22.77;24.95
74334;BME280;62753;40.394;-80.022;2023-10-13T00:53:49;97071.22;;;23.21;25.21
74334;BME280;62753;40.394;-80.022;2023-10-13T00:56:15;97075.10;;;22.62;25.27
74334;BME280;62753;40.394;-80.022;2023-10-13T00:58:40;97077.90;;;22.31;25.83
74334;BME280;62753;40.394;-80.022;2023-10-13T01:01:05;97079.75;;;22.77;25.49
74334;BME280;62753;40.394;-80.022;2023-10-13T01:03:30;97075.97;;;21.59;26.71
74334;BME280;62753;40.394;-80.022;2023-10-13T01:05:57;97081.16;;;22.78;25.75
74334;BME280;62753;40.394;-80.022;2023-10-13T01:08:31;97082.64;;;22.75;26.20
74334;BME280;62753;40.394;-80.022;2023-10-13T01:10:47;97073.85;;;21.59;26.80
74334;BME280;62753;40.394;-80.022;2023-10-13T01:13:12;97071.92;;;21.86;26.85
74334;BME280;62753;40.394;-80.022;2023-10-13T01:15:37;97079.24;;;22.49;26.20
74334;BME280;62753;40.394;-80.022;2023-10-13T01:18:07;97082.10;;;22.67;26.21
74334;BME280;62753;40.394;-80.022;2023-10-13T01:20:28;97080.01;;;22.14;27.05
74334;BME280;62753;40.394;-80.022;2023-10-13T01:22:53;97075.84;;;22.18;26.96
74334;BME280;62753;40.394;-80.022;2023-10-13T01:25:19;97079.61;;;22.69;27.24
74334;BME280;62753;40.394;-80.022;2023-10-13T01:27:43;97081.51;;;23.20;26.54
74334;BME280;62753;40.394;-80.022;2023-10-13T01:30:10;97080.88;;;23.13;26.10
74334;BME280;62753;40.394;-80.022;2023-10-13T01:32:35;97085.86;;;22.21;27.33
74334;BME280;62753;40.394;-80.022;2023-10-13T01:35:00;97081.20;;;21.72;28.17
74334;BME280;62753;40.394;-80.022;2023-10-13T01:37:26;97081.96;;;21.61;28.02
74334;BME280;62753;40.394;-80.022;2023-10-13T01:39:51;97078.85;;;21.73;28.12
74334;BME280;62753;40.394;-80.022;2023-10-13T01:42:16;97082.31;;;22.42;27.53
74334;BME280;62753;40.394;-80.022;2023-10-13T01:44:42;97082.95;;;22.97;27.12
74334;BME280;62753;40.394;-80.022;2023-10-13T01:47:07;97080.53;;;22.63;27.17
74334;BME280;62753;40.394;-80.022;2023-10-13T01:49:32;97070.34;;;23.12;26.73
74334;BME280;62753;40.394;-80.022;2023-10-13T01:51:57;97066.39;;;22.60;27.52
74334;BME280;62753;40.394;-80.022;2023-10-13T01:54:22;97060.95;;;22.19;27.92
74334;BME280;62753;40.394;-80.022;2023-10-13T01:56:48;97063.63;;;21.97;28.30
74334;BME280;62753;40.394;-80.022;2023-10-13T01:59:13;97073.78;;;22.02;28.61
74334;BME280;62753;40.394;-80.022;2023-10-13T02:01:39;97086.28;;;21.61;29.02
74334;BME280;62753;40.394;-80.022;2023-10-13T02:04:05;97076.55;;;20.99;29.47
74334;BME280;62753;40.394;-80.022;2023-10-13T02:06:30;97080.27;;;21.36;29.78
74334;BME280;62753;40.394;-80.022;2023-10-13T02:08:56;97085.60;;;21.21;29.90
74334;BME280;62753;40.394;-80.022;2023-10-13T02:11:20;97088.09;;;22.02;28.57
74334;BME280;62753;40.394;-80.022;2023-10-13T02:13:46;97097.17;;;21.35;29.75
74334;BME280;62753;40.394;-80.022;2023-10-13T02:16:11;97104.29;;;21.53;29.73
74334;BME280;62753;40.394;-80.022;2023-10-13T02:18:36;97106.64;;;21.50;29.28
74334;BME280;62753;40.394;-80.022;2023-10-13T02:21:03;97110.37;;;21.67;29.05
74334;BME280;62753;40.394;-80.022;2023-10-13T02:23:27;97120.89;;;21.65;29.36
74334;BME280;62753;40.394;-80.022;2023-10-13T02:25:52;97130.95;;;21.13;30.34
74334;BME280;62753;40.394;-80.022;2023-10-13T02:28:18;97130.90;;;21.10;30.26
74334;BME280;62753;40.394;-80.022;2023-10-13T02:30:44;97135.33;;;21.24;30.01
74334;BME280;62753;40.394;-80.022;2023-10-13T02:33:10;97139.85;;;20.94;30.68
74334;BME280;62753;40.394;-80.022;2023-10-13T02:35:34;97135.53;;;20.48;30.68
74334;BME280;62753;40.394;-80.022;2023-10-13T02:37:59;97133.37;;;22.11;29.06
74334;BME280;62753;40.394;-80.022;2023-10-13T02:40:25;97143.17;;;21.11;30.37
74334;BME280;62753;40.394;-80.022;2023-10-13T02:42:50;97139.45;;;21.02;30.38
74334;BME280;62753;40.394;-80.022;2023-10-13T02:45:15;97129.28;;;22.17;29.10
74334;BME280;62753;40.394;-80.022;2023-10-13T02:47:41;97131.82;;;21.18;29.93
74334;BME280;62753;40.394;-80.022;2023-10-13T02:50:07;97138.86;;;22.48;28.29
74334;BME280;62753;40.394;-80.022;2023-10-13T02:52:31;97140.04;;;21.59;29.47
74334;BME280;62753;40.394;-80.022;2023-10-13T02:54:57;97149.69;;;22.27;28.48
74334;BME280;62753;40.394;-80.022;2023-10-13T02:57:23;97156.20;;;22.09;28.88
74334;BME280;62753;40.394;-80.022;2023-10-13T02:59:48;97162.90;;;21.99;29.72
74334;BME280;62753;40.394;-80.022;2023-10-13T03:02:13;97171.54;;;21.98;29.69
74334;BME280;62753;40.394;-80.022;2023-10-13T03:04:39;97170.33;;;21.71;30.71
74334;BME280;62753;40.394;-80.022;2023-10-13T03:07:04;97162.08;;;21.38;30.38
74334;BME280;62753;40.394;-80.022;2023-10-13T03:09:29;97154.56;;;20.05;32.46
74334;BME280;62753;40.394;-80.022;2023-10-13T03:11:55;97149.80;;;19.78;33.09
74334;BME280;62753;40.394;-80.022;2023-10-13T03:14:22;97149.24;;;21.07;31.02
74334;BME280;62753;40.394;-80.022;2023-10-13T03:16:46;97154.51;;;20.40;32.29
74334;BME280;62753;40.394;-80.022;2023-10-13T03:19:11;97161.85;;;21.08;31.45
74334;BME280;62753;40.394;-80.022;2023-10-13T03:21:37;97162.41;;;20.43;32.49
74334;BME280;62753;40.394;-80.022;2023-10-13T03:24:02;97163.38;;;20.52;32.62
74334;BME280;62753;40.394;-80.022;2023-10-13T03:26:27;97165.31;;;20.08;32.29
74334;BME280;62753;40.394;-80.022;2023-10-13T03:28:53;97163.91;;;20.60;31.81
74334;BME280;62753;40.394;-80.022;2023-10-13T03:31:19;97164.86;;;21.23;31.04
74334;BME280;62753;40.394;-80.022;2023-10-13T03:33:43;97161.07;;;21.12;30.92
74334;BME280;62753;40.394;-80.022;2023-10-13T03:36:09;97155.38;;;21.24;30.92
74334;BME280;62753;40.394;-80.022;2023-10-13T03:38:34;97152.45;;;20.72;31.35
74334;BME280;62753;40.394;-80.022;2023-10-13T03:41:00;97153.91;;;21.11;31.34
74334;BME280;62753;40.394;-80.022;2023-10-13T03:43:25;97152.32;;;21.00;31.55
74334;BME280;62753;40.394;-80.022;2023-10-13T03:45:51;97154.52;;;21.40;30.80
74334;BME280;62753;40.394;-80.022;2023-10-13T03:48:17;97160.16;;;21.73;30.73
74334;BME280;62753;40.394;-80.022;2023-10-13T03:50:41;97167.82;;;20.43;32.26
74334;BME280;62753;40.394;-80.022;2023-10-13T03:53:06;97176.40;;;20.93;31.44
74334;BME280;62753;40.394;-80.022;2023-10-13T03:55:31;97183.67;;;20.13;32.63
74334;BME280;62753;40.394;-80.022;2023-10-13T03:57:56;97189.92;;;19.06;34.05
74334;BME280;62753;40.394;-80.022;2023-10-13T04:00:22;97187.88;;;20.16;32.18
74334;BME280;62753;40.394;-80.022;2023-10-13T04:02:47;97188.92;;;19.76;32.35
74334;BME280;62753;40.394;-80.022;2023-10-13T04:05:12;97188.50;;;20.43;32.14
74334;BME280;62753;40.394;-80.022;2023-10-13T04:07:37;97194.29;;;18.53;34.59
74334;BME280;62753;40.394;-80.022;2023-10-13T04:10:04;97190.17;;;20.24;32.82
74334;BME280;62753;40.394;-80.022;2023-10-13T04:12:28;97184.89;;;20.35;32.53
74334;BME280;62753;40.394;-80.022;2023-10-13T04:14:54;97183.25;;;20.90;31.72
74334;BME280;62753;40.394;-80.022;2023-10-13T04:17:19;97180.39;;;20.06;32.43
74334;BME280;62753;40.394;-80.022;2023-10-13T04:19:45;97181.10;;;19.52;33.36
74334;BME280;62753;40.394;-80.022;2023-10-13T04:22:10;97178.35;;;20.28;32.35
74334;BME280;62753;40.394;-80.022;2023-10-13T04:24:36;97183.62;;;20.23;32.36
74334;BME280;62753;40.394;-80.022;2023-10-13T04:27:01;97191.17;;;20.80;32.14
74334;BME280;62753;40.394;-80.022;2023-10-13T04:29:27;97195.14;;;20.60;31.83
74334;BME280;62753;40.394;-80.022;2023-10-13T04:31:56;97191.99;;;20.31;32.28
74334;BME280;62753;40.394;-80.022;2023-10-13T04:34:17;97189.60;;;20.99;31.44
74334;BME280;62753;40.394;-80.022;2023-10-13T04:36:44;97182.66;;;21.06;31.55
74334;BME280;62753;40.394;-80.022;2023-10-13T04:39:08;97177.78;;;20.64;31.86
74334;BME280;62753;40.394;-80.022;2023-10-13T04:41:34;97183.39;;;19.94;32.48
74334;BME280;62753;40.394;-80.022;2023-10-13T04:43:58;97182.87;;;21.15;31.13
74334;BME280;62753;40.394;-80.022;2023-10-13T04:46:24;97187.90;;;19.77;32.78
74334;BME280;62753;40.394;-80.022;2023-10-13T04:48:49;97184.57;;;20.49;32.32
74334;BME280;62753;40.394;-80.022;2023-10-13T04:51:14;97186.00;;;20.32;32.22
74334;BME280;62753;40.394;-80.022;2023-10-13T04:53:39;97192.15;;;21.03;31.58
74334;BME280;62753;40.394;-80.022;2023-10-13T04:56:04;97202.64;;;18.89;34.30
74334;BME280;62753;40.394;-80.022;2023-10-13T04:58:29;97204.56;;;20.50;32.75
74334;BME280;62753;40.394;-80.022;2023-10-13T05:00:59;97214.55;;;19.37;34.17
74334;BME280;62753;40.394;-80.022;2023-10-13T05:03:21;97208.49;;;20.90;31.96
74334;BME280;62753;40.394;-80.022;2023-10-13T05:05:46;97216.43;;;19.23;34.14
74334;BME280;62753;40.394;-80.022;2023-10-13T05:08:11;97212.51;;;19.09;33.74
74334;BME280;62753;40.394;-80.022;2023-10-13T05:10:37;97208.95;;;20.19;32.79
74334;BME280;62753;40.394;-80.022;2023-10-13T05:13:02;97202.75;;;20.23;32.42
74334;BME280;62753;40.394;-80.022;2023-10-13T05:15:27;97214.52;;;19.22;34.01
74334;BME280;62753;40.394;-80.022;2023-10-13T05:17:53;97221.96;;;18.86;34.65
74334;BME280;62753;40.394;-80.022;2023-10-13T05:20:18;97225.81;;;17.84;36.45
74334;BME280;62753;40.394;-80.022;2023-10-13T05:22:43;97230.76;;;19.59;34.35
74334;BME280;62753;40.394;-80.022;2023-10-13T05:25:09;97235.20;;;19.73;34.28
74334;BME280;62753;40.394;-80.022;2023-10-13T05:27:34;97237.45;;;19.02;35.35
74334;BME280;62753;40.394;-80.022;2023-10-13T05:30:00;97235.97;;;18.84;35.71
74334;BME280;62753;40.394;-80.022;2023-10-13T05:32:25;97237.81;;;17.96;37.07
74334;BME280;62753;40.394;-80.022;2023-10-13T05:34:50;97243.78;;;18.67;35.85
74334;BME280;62753;40.394;-80.022;2023-10-13T05:37:16;97240.33;;;18.48;35.72
74334;BME280;62753;40.394;-80.022;2023-10-13T05:39:41;97238.76;;;18.38;35.47
74334;BME280;62753;40.394;-80.022;2023-10-13T05:42:06;97231.95;;;18.23;35.88
74334;BME280;62753;40.394;-80.022;2023-10-13T05:44:31;97225.34;;;19.31;35.01
74334;BME280;62753;40.394;-80.022;2023-10-13T05:46:56;97224.41;;;19.07;35.21
74334;BME280;62753;40.394;-80.022;2023-10-13T05:49:22;97228.18;;;20.00;34.00
74334;BME280;62753;40.394;-80.022;2023-10-13T05:51:47;97229.08;;;19.57;34.02
74334;BME280;62753;40.394;-80.022;2023-10-13T05:54:13;97227.89;;;18.25;35.80
74334;BME280;62753;40.394;-80.022;2023-10-13T05:56:37;97228.24;;;19.70;33.66
74334;BME280;62753;40.394;-80.022;2023-10-13T05:59:02;97218.93;;;19.14;34.81
74334;BME280;62753;40.394;-80.022;2023-10-13T06:01:27;97219.21;;;19.25;34.09
74334;BME280;62753;40.394;-80.022;2023-10-13T06:03:52;97220.62;;;19.01;34.54
74334;BME280;62753;40.394;-80.022;2023-10-13T06:06:18;97220.08;;;18.49;35.21
74334;BME280;62753;40.394;-80.022;2023-10-13T06:08:43;97220.22;;;19.75;33.03
74334;BME280;62753;40.394;-80.022;2023-10-13T06:11:07;97218.44;;;19.90;33.08
74334;BME280;62753;40.394;-80.022;2023-10-13T06:13:33;97211.85;;;19.59;33.56
74334;BME280;62753;40.394;-80.022;2023-10-13T06:15:58;97206.17;;;19.93;32.80
74334;BME280;62753;40.394;-80.022;2023-10-13T06:18:24;97207.98;;;19.07;33.83
74334;BME280;62753;40.394;-80.022;2023-10-13T06:20:50;97210.66;;;18.70;34.60
74334;BME280;62753;40.394;-80.022;2023-10-13T06:23:15;97219.65;;;19.17;34.08
74334;BME280;62753;40.394;-80.022;2023-10-13T06:25:40;97224.02;;;18.98;34.26
74334;BME280;62753;40.394;-80.022;2023-10-13T06:28:05;97221.02;;;19.28;33.89
74334;BME280;62753;40.394;-80.022;2023-10-13T06:30:30;97221.29;;;19.93;33.11
74334;BME280;62753;40.394;-80.022;2023-10-13T06:32:56;97225.45;;;19.45;33.60
74334;BME280;62753;40.394;-80.022;2023-10-13T06:35:21;97225.01;;;18.07;34.82
74334;BME280;62753;40.394;-80.022;2023-10-13T06:37:47;97237.75;;;19.01;33.92
74334;BME280;62753;40.394;-80.022;2023-10-13T06:40:12;97243.44;;;18.89;33.69
74334;BME280;62753;40.394;-80.022;2023-10-13T06:42:36;97240.71;;;19.47;33.84
74334;BME280;62753;40.394;-80.022;2023-10-13T06:45:02;97235.03;;;18.24;35.48
74334;BME280;62753;40.394;-80.022;2023-10-13T06:47:27;97235.47;;;18.45;34.39
74334;BME280;62753;40.394;-80.022;2023-10-13T06:49:52;97237.94;;;18.31;35.16
74334;BME280;62753;40.394;-80.022;2023-10-13T06:52:17;97241.05;;;17.76;35.88
74334;BME280;62753;40.394;-80.022;2023-10-13T06:54:42;97238.65;;;17.37;36.15
74334;BME280;62753;40.394;-80.022;2023-10-13T06:57:08;97238.83;;;17.93;35.53
74334;BME280;62753;40.394;-80.022;2023-10-13T06:59:33;97247.70;;;17.32;37.16
74334;BME280;62753;40.394;-80.022;2023-10-13T07:01:58;97245.46;;;17.65;36.63
74334;BME280;62753;40.394;-80.022;2023-10-13T07:04:23;97238.13;;;17.91;36.09
74334;BME280;62753;40.394;-80.022;2023-10-13T07:06:49;97237.28;;;17.49;37.35
74334;BME280;62753;40.394;-80.022;2023-10-13T07:09:14;97231.67;;;17.85;36.43
74334;BME280;62753;40.394;-80.022;2023-10-13T07:11:39;97236.63;;;17.51;36.27
74334;BME280;62753;40.394;-80.022;2023-10-13T07:14:04;97239.25;;;16.98;37.17
74334;BME280;62753;40.394;-80.022;2023-10-13T07:16:30;97234.56;;;16.71;37.41
74334;BME280;62753;40.394;-80.022;2023-10-13T07:18:55;97227.14;;;18.53;35.08
74334;BME280;62753;40.394;-80.022;2023-10-13T07:21:20;97225.57;;;17.43;36.14
74334;BME280;62753;40.394;-80.022;2023-10-13T07:23:45;97219.59;;;16.91;36.99
74334;BME280;62753;40.394;-80.022;2023-10-13T07:26:10;97213.64;;;17.65;35.93
74334;BME280;62753;40.394;-80.022;2023-10-13T07:28:36;97220.65;;;17.56;36.44
74334;BME280;62753;40.394;-80.022;2023-10-13T07:31:02;97216.40;;;16.68;38.11
74334;BME280;62753;40.394;-80.022;2023-10-13T07:33:26;97210.49;;;17.44;36.16
74334;BME280;62753;40.394;-80.022;2023-10-13T07:36:00;97211.46;;;17.48;36.35
74334;BME280;62753;40.394;-80.022;2023-10-13T07:38:18;97221.67;;;17.10;36.07
74334;BME280;62753;40.394;-80.022;2023-10-13T07:40:42;97226.17;;;16.32;37.27
74334;BME280;62753;40.394;-80.022;2023-10-13T07:43:08;97227.41;;;16.80;37.50
74334;BME280;62753;40.394;-80.022;2023-10-13T07:45:33;97230.16;;;16.35;37.03
74334;BME280;62753;40.394;-80.022;2023-10-13T07:47:58;97230.21;;;17.88;35.18
74334;BME280;62753;40.394;-80.022;2023-10-13T07:50:23;97235.16;;;17.70;35.85
74334;BME280;62753;40.394;-80.022;2023-10-13T07:52:49;97242.98;;;17.35;36.40
74334;BME280;62753;40.394;-80.022;2023-10-13T07:55:14;97246.20;;;17.39;35.74
74334;BME280;62753;40.394;-80.022;2023-10-13T07:57:40;97246.22;;;16.72;36.79
74334;BME280;62753;40.394;-80.022;2023-10-13T08:00:06;97248.44;;;17.42;35.84
74334;BME280;62753;40.394;-80.022;2023-10-13T08:02:30;97244.36;;;17.64;35.44
74334;BME280;62753;40.394;-80.022;2023-10-13T08:04:55;97249.95;;;17.42;36.02
74334;BME280;62753;40.394;-80.022;2023-10-13T08:07:20;97248.90;;;17.92;34.62
74334;BME280;62753;40.394;-80.022;2023-10-13T08:09:46;97250.38;;;16.70;36.34
74334;BME280;62753;40.394;-80.022;2023-10-13T08:12:11;97253.50;;;16.29;37.37
74334;BME280;62753;40.394;-80.022;2023-10-13T08:14:36;97247.66;;;18.00;34.94
74334;BME280;62753;40.394;-80.022;2023-10-13T08:17:01;97243.61;;;18.04;34.57
74334;BME280;62753;40.394;-80.022;2023-10-13T08:19:28;97240.81;;;17.87;34.87
74334;BME280;62753;40.394;-80.022;2023-10-13T08:21:52;97241.48;;;17.58;35.02
74334;BME280;62753;40.394;-80.022;2023-10-13T08:24:18;97244.26;;;17.05;35.98
74334;BME280;62753;40.394;-80.022;2023-10-13T08:26:42;97244.19;;;17.94;34.36
74334;BME280;62753;40.394;-80.022;2023-10-13T08:29:08;97244.55;;;17.83;34.78
74334;BME280;62753;40.394;-80.022;2023-10-13T08:31:33;97246.31;;;18.16;34.88
74334;BME280;62753;40.394;-80.022;2023-10-13T08:33:58;97252.59;;;17.15;36.03
74334;BME280;62753;40.394;-80.022;2023-10-13T08:36:23;97258.23;;;16.99;36.41
74334;BME280;62753;40.394;-80.022;2023-10-13T08:38:49;97260.16;;;17.17;36.22
74334;BME280;62753;40.394;-80.022;2023-10-13T08:41:15;97265.49;;;16.86;36.28
74334;BME280;62753;40.394;-80.022;2023-10-13T08:43:42;97268.39;;;16.15;37.29
74334;BME280;62753;40.394;-80.022;2023-10-13T08:46:05;97261.02;;;17.13;36.17
74334;BME280;62753;40.394;-80.022;2023-10-13T08:48:30;97255.25;;;17.25;36.57
74334;BME280;62753;40.394;-80.022;2023-10-13T08:50:56;97262.10;;;16.49;37.01
74334;BME280;62753;40.394;-80.022;2023-10-13T08:53:23;97258.79;;;17.15;36.69
74334;BME280;62753;40.394;-80.022;2023-10-13T08:55:47;97258.56;;;16.80;36.94
74334;BME280;62753;40.394;-80.022;2023-10-13T08:58:12;97250.61;;;16.71;36.82
74334;BME280;62753;40.394;-80.022;2023-10-13T09:00:38;97250.30;;;16.28;38.24
74334;BME280;62753;40.394;-80.022;2023-10-13T09:03:06;97245.12;;;16.61;37.49
74334;BME280;62753;40.394;-80.022;2023-10-13T09:05:29;97253.86;;;15.88;37.98
74334;BME280;62753;40.394;-80.022;2023-10-13T09:07:53;97251.37;;;16.06;39.38
74334;BME280;62753;40.394;-80.022;2023-10-13T09:10:22;97253.74;;;15.69;39.36
74334;BME280;62753;40.394;-80.022;2023-10-13T09:12:53;97262.52;;;15.90;39.30
74334;BME280;62753;40.394;-80.022;2023-10-13T09:15:10;97261.63;;;15.06;40.77
74334;BME280;62753;40.394;-80.022;2023-10-13T09:17:40;97262.98;;;15.31;39.78
74334;BME280;62753;40.394;-80.022;2023-10-13T09:20:02;97259.12;;;15.00;41.20
74334;BME280;62753;40.394;-80.022;2023-10-13T09:22:28;97259.05;;;15.11;41.15
74334;BME280;62753;40.394;-80.022;2023-10-13T09:24:54;97259.68;;;14.88;41.24
74334;BME280;62753;40.394;-80.022;2023-10-13T09:27:17;97260.73;;;14.82;41.74
74334;BME280;62753;40.394;-80.022;2023-10-13T09:29:43;97265.04;;;14.91;41.72
74334;BME280;62753;40.394;-80.022;2023-10-13T09:32:07;97269.72;;;15.39;41.29
74334;BME280;62753;40.394;-80.022;2023-10-13T09:34:33;97275.49;;;15.20;40.91
74334;BME280;62753;40.394;-80.022;2023-10-13T09:36:59;97278.35;;;15.78;39.46
74334;BME280;62753;40.394;-80.022;2023-10-13T09:39:25;97278.02;;;15.68;39.63
74334;BME280;62753;40.394;-80.022;2023-10-13T09:41:49;97282.87;;;15.63;39.25
74334;BME280;62753;40.394;-80.022;2023-10-13T09:44:15;97282.79;;;16.45;38.20
74334;BME280;62753;40.394;-80.022;2023-10-13T09:46:40;97288.50;;;16.26;38.53
74334;BME280;62753;40.394;-80.022;2023-10-13T09:49:11;97283.31;;;15.80;38.92
74334;BME280;62753;40.394;-80.022;2023-10-13T09:51:31;97274.51;;;16.08;38.99
74334;BME280;62753;40.394;-80.022;2023-10-13T09:54:00;97277.89;;;15.87;39.37
74334;BME280;62753;40.394;-80.022;2023-10-13T09:56:25;97286.65;;;15.75;39.57
74334;BME280;62753;40.394;-80.022;2023-10-13T09:58:51;97294.99;;;16.55;38.50
74334;BME280;62753;40.394;-80.022;2023-10-13T10:01:14;97304.33;;;15.81;38.45
74334;BME280;62753;40.394;-80.022;2023-10-13T10:03:46;97304.14;;;16.51;37.89
74334;BME280;62753;40.394;-80.022;2023-10-13T10:06:03;97308.64;;;16.16;37.36
74334;BME280;62753;40.394;-80.022;2023-10-13T10:08:28;97319.04;;;16.26;38.05
74334;BME280;62753;40.394;-80.022;2023-10-13T10:11:00;97314.39;;;16.56;37.39
74334;BME280;62753;40.394;-80.022;2023-10-13T10:13:24;97308.63;;;16.23;37.78
74334;BME280;62753;40.394;-80.022;2023-10-13T10:15:46;97308.28;;;16.33;37.16
74334;BME280;62753;40.394;-80.022;2023-10-13T10:18:18;97308.38;;;15.37;39.14
74334;BME280;62753;40.394;-80.022;2023-10-13T10:20:36;97301.16;;;15.35;40.03
74334;BME280;62753;40.394;-80.022;2023-10-13T10:23:00;97308.00;;;15.41;39.94
74334;BME280;62753;40.394;-80.022;2023-10-13T10:25:31;97318.74;;;15.54;39.73
74334;BME280;62753;40.394;-80.022;2023-10-13T10:27:55;97327.20;;;15.58;39.81
74334;BME280;62753;40.394;-80.022;2023-10-13T10:30:23;97335.32;;;15.69;39.01
74334;BME280;62753;40.394;-80.022;2023-10-13T10:32:41;97321.42;;;15.38;39.58
74334;BME280;62753;40.394;-80.022;2023-10-13T10:35:08;97313.98;;;15.35;40.17
74334;BME280;62753;40.394;-80.022;2023-10-13T10:37:32;97314.40;;;15.11;40.60
74334;BME280;62753;40.394;-80.022;2023-10-13T10:39:58;97303.24;;;14.13;42.44
74334;BME280;62753;40.394;-80.022;2023-10-13T10:42:23;97296.15;;;14.94;41.51
74334;BME280;62753;40.394;-80.022;2023-10-13T10:44:49;97294.28;;;15.68;39.87
74334;BME280;62753;40.394;-80.022;2023-10-13T10:47:14;97297.84;;;15.54;39.88
74334;BME280;62753;40.394;-80.022;2023-10-13T10:49:39;97305.08;;;15.70;39.59
74334;BME280;62753;40.394;-80.022;2023-10-13T10:52:04;97310.01;;;16.10;39.16
74334;BME280;62753;40.394;-80.022;2023-10-13T10:54:29;97303.23;;;16.46;38.24
74334;BME280;62753;40.394;-80.022;2023-10-13T10:56:56;97300.42;;;15.50;39.76
74334;BME280;62753;40.394;-80.022;2023-10-13T10:59:20;97317.97;;;15.70;39.59
74334;BME280;62753;40.394;-80.022;2023-10-13T11:01:46;97331.78;;;15.47;39.66
74334;BME280;62753;40.394;-80.022;2023-10-13T11:04:11;97339.99;;;16.15;38.76
74334;BME280;62753;40.394;-80.022;2023-10-13T11:06:36;97339.86;;;15.62;39.51
74334;BME280;62753;40.394;-80.022;2023-10-13T11:09:03;97355.02;;;15.64;38.92
74334;BME280;62753;40.394;-80.022;2023-10-13T11:11:30;97341.80;;;17.05;36.59
74334;BME280;62753;40.394;-80.022;2023-10-13T11:13:52;97337.43;;;16.81;36.86
74334;BME280;62753;40.394;-80.022;2023-10-13T11:16:21;97340.24;;;16.22;37.66
74334;BME280;62753;40.394;-80.022;2023-10-13T11:18:43;97346.60;;;16.28;38.01
74334;BME280;62753;40.394;-80.022;2023-10-13T11:21:14;97347.53;;;15.72;38.09
74334;BME280;62753;40.394;-80.022;2023-10-13T11:23:33;97349.21;;;15.72;38.25
74334;BME280;62753;40.394;-80.022;2023-10-13T11:25:59;97346.20;;;16.12;38.36
74334;BME280;62753;40.394;-80.022;2023-10-13T11:28:24;97343.36;;;15.64;39.02
74334;BME280;62753;40.394;-80.022;2023-10-13T11:30:49;97357.09;;;16.24;38.23
74334;BME280;62753;40.394;-80.022;2023-10-13T11:33:14;97362.77;;;16.80;37.09
74334;BME280;62753;40.394;-80.022;2023-10-13T11:35:40;97364.49;;;16.74;36.78
74334;BME280;62753;40.394;-80.022;2023-10-13T11:38:05;97362.85;;;15.98;37.95
74334;BME280;62753;40.394;-80.022;2023-10-13T11:40:30;97361.49;;;16.30;37.53
74334;BME280;62753;40.394;-80.022;2023-10-13T11:42:55;97368.45;;;16.58;37.30
74334;BME280;62753;40.394;-80.022;2023-10-13T11:45:21;97385.43;;;16.57;37.04
74334;BME280;62753;40.394;-80.022;2023-10-13T11:47:46;97390.88;;;16.83;36.38
74334;BME280;62753;40.394;-80.022;2023-10-13T11:50:11;97400.01;;;16.50;36.75
74334;BME280;62753;40.394;-80.022;2023-10-13T11:52:37;97404.88;;;16.62;36.44
74334;BME280;62753;40.394;-80.022;2023-10-13T11:55:02;97403.63;;;16.40;36.79
74334;BME280;62753;40.394;-80.022;2023-10-13T11:57:27;97399.47;;;16.96;36.47
74334;BME280;62753;40.394;-80.022;2023-10-13T11:59:52;97392.97;;;16.45;37.41
74334;BME280;62753;40.394;-80.022;2023-10-13T12:02:19;97391.33;;;16.69;36.88
74334;BME280;62753;40.394;-80.022;2023-10-13T12:04:43;97391.69;;;16.32;37.42
74334;BME280;62753;40.394;-80.022;2023-10-13T12:07:09;97387.20;;;17.17;36.20
74334;BME280;62753;40.394;-80.022;2023-10-13T12:09:34;97385.75;;;16.54;37.15
74334;BME280;62753;40.394;-80.022;2023-10-13T12:12:00;97375.26;;;15.99;37.98
74334;BME280;62753;40.394;-80.022;2023-10-13T12:14:25;97384.30;;;16.25;38.09
74334;BME280;62753;40.394;-80.022;2023-10-13T12:16:51;97383.49;;;15.50;39.18
74334;BME280;62753;40.394;-80.022;2023-10-13T12:19:16;97384.37;;;15.99;38.59
74334;BME280;62753;40.394;-80.022;2023-10-13T12:21:41;97403.50;;;15.16;39.01
74334;BME280;62753;40.394;-80.022;2023-10-13T12:24:06;97418.07;;;15.83;38.43
74334;BME280;62753;40.394;-80.022;2023-10-13T12:26:32;97405.84;;;15.16;39.01
74334;BME280;62753;40.394;-80.022;2023-10-13T12:28:57;97406.68;;;14.55;40.88